Time;durP1;ratioP1;P1;durP2;ratioP2;P2;SDS_P1;SDS_P2;PMS_P1;PMS_P2;Temp;Humidity;BMP_temperature;BMP_pressure;BME280_temperature;BME280_humidity;BME280_pressure;Samples;Min_cycle;Max_cycle;Signal;HPM_P1;HPM_P2
2022/01/05 00:01:51;;;;;;;0.80;0.40;;;;;;;2.83;89.20;95830.88;5025611;28;20099;-63
2022/01/05 00:04:19;;;;;;;1.00;0.57;;;;;;;2.84;89.23;95818.34;5023911;28;20044;-63
2022/01/05 00:06:46;;;;;;;1.58;0.63;;;;;;;2.83;89.05;95820.19;5024730;28;20520;-61
2022/01/05 00:09:12;;;;;;;1.02;0.50;;;;;;;2.88;89.15;95822.16;5008993;28;20041;-60
2022/01/05 00:11:40;;;;;;;0.65;0.40;;;;;;;2.94;88.63;95820.34;5026283;28;20570;-60
2022/01/05 00:14:08;;;;;;;0.70;0.50;;;;;;;2.91;88.85;95824.31;5026351;28;20497;-60
2022/01/05 00:16:34;;;;;;;2.08;0.70;;;;;;;2.91;89.56;95818.19;5026835;28;20044;-60
2022/01/05 00:19:02;;;;;;;1.15;0.60;;;;;;;3.00;88.21;95822.09;5027686;28;20056;-63
2022/01/05 00:21:28;;;;;;;0.77;0.60;;;;;;;2.99;88.36;95815.91;5027624;28;20041;-63
2022/01/05 00:23:55;;;;;;;1.50;0.70;;;;;;;2.91;88.83;95824.31;5027384;28;20628;-63
2022/01/05 00:26:22;;;;;;;1.13;0.55;;;;;;;2.92;89.05;95823.28;5027618;28;20042;-63
2022/01/05 00:28:48;;;;;;;0.93;0.50;;;;;;;2.91;88.84;95818.19;5027487;28;20491;-63
2022/01/05 00:31:15;;;;;;;0.82;0.50;;;;;;;2.93;88.93;95816.88;5027106;28;20049;-63
2022/01/05 00:33:41;;;;;;;1.30;0.50;;;;;;;2.92;88.60;95812.59;5026324;28;20068;-63
2022/01/05 00:36:08;;;;;;;1.00;0.40;;;;;;;2.89;89.11;95797.03;5027033;28;20436;-63
2022/01/05 00:38:35;;;;;;;1.75;0.50;;;;;;;2.92;88.55;95801.09;5027841;28;20044;-63
2022/01/05 00:41:01;;;;;;;0.98;0.50;;;;;;;2.87;88.72;95788.44;5027160;28;20037;-63
2022/01/05 00:43:28;;;;;;;0.45;0.40;;;;;;;2.92;88.68;95791.22;5027062;28;20045;-63
2022/01/05 00:45:55;;;;;;;0.60;0.40;;;;;;;2.91;88.75;95792.25;5027518;28;20516;-63
2022/01/05 00:48:22;;;;;;;0.60;0.50;;;;;;;2.98;88.48;95782.22;5028349;28;20540;-63
2022/01/05 00:50:48;;;;;;;2.00;0.60;;;;;;;2.91;88.29;95791.44;5027128;28;20048;-63
2022/01/05 00:53:15;;;;;;;1.15;0.50;;;;;;;2.94;88.17;95788.28;5027058;28;20056;-63
2022/01/05 00:55:42;;;;;;;0.77;0.60;;;;;;;2.98;87.97;95782.22;5026893;28;20045;-63
2022/01/05 00:58:08;;;;;;;0.80;0.50;;;;;;;2.95;87.77;95788.03;5026375;28;20049;-63
2022/01/05 01:00:35;;;;;;;1.13;0.50;;;;;;;3.02;87.78;95782.53;5026561;28;20045;-63
2022/01/05 01:03:01;;;;;;;1.10;0.55;;;;;;;2.99;87.52;95781.16;5026145;28;20121;-63
2022/01/05 01:05:28;;;;;;;1.00;0.60;;;;;;;3.02;87.87;95782.53;5025877;28;20125;-63
2022/01/05 01:07:55;;;;;;;1.88;0.40;;;;;;;3.01;87.81;95788.13;5026684;28;20042;-63
2022/01/05 01:10:21;;;;;;;0.80;0.50;;;;;;;2.99;87.69;95794.53;5026199;28;20424;-63
2022/01/05 01:12:48;;;;;;;1.08;0.60;;;;;;;3.03;87.60;95802.88;5025918;28;20041;-62
2022/01/05 01:15:15;;;;;;;0.50;0.30;;;;;;;2.96;87.94;95804.91;5026582;28;20048;-62
2022/01/05 01:17:42;;;;;;;1.02;0.50;;;;;;;2.96;88.04;95808.41;5025189;28;20417;-63
2022/01/05 01:20:09;;;;;;;0.47;0.40;;;;;;;2.99;88.08;95805.22;5022808;28;20045;-62
2022/01/05 01:22:36;;;;;;;0.43;0.30;;;;;;;2.99;87.85;95807.88;5026843;28;20064;-63
2022/01/05 01:25:06;;;;;;;1.65;0.50;;;;;;;3.02;87.39;95803.91;5026038;28;20037;-63
2022/01/05 01:27:34;;;;;;;0.63;0.40;;;;;;;3.02;87.97;95805.81;5026389;28;20050;-62
2022/01/05 01:30:02;;;;;;;0.60;0.45;;;;;;;3.07;87.40;95804.03;5026763;28;20037;-63
2022/01/05 01:32:29;;;;;;;1.83;0.43;;;;;;;3.09;87.66;95812.59;5026288;28;20037;-63
2022/01/05 01:34:55;;;;;;;0.65;0.55;;;;;;;3.10;88.48;95814.22;5026363;28;20440;-63
2022/01/05 01:37:22;;;;;;;0.65;0.40;;;;;;;3.07;87.90;95816.56;5025570;28;20056;-63
2022/01/05 01:39:49;;;;;;;0.77;0.43;;;;;;;3.06;87.76;95829.13;5026315;28;20041;-63
2022/01/05 01:42:15;;;;;;;1.08;0.50;;;;;;;3.02;88.04;95835.22;5025506;28;20038;-62
2022/01/05 01:44:43;;;;;;;1.00;0.40;;;;;;;3.04;87.69;95833.09;5025924;28;20048;-63
2022/01/05 01:47:09;;;;;;;0.47;0.43;;;;;;;3.07;87.96;95829.94;5026058;28;20045;-62
2022/01/05 01:49:36;;;;;;;0.93;0.40;;;;;;;3.01;88.11;95839.75;5025231;28;20041;-62
2022/01/05 01:52:04;;;;;;;0.50;0.38;;;;;;;3.09;88.23;95835.84;5024314;28;20041;-63
2022/01/05 01:54:31;;;;;;;0.45;0.25;;;;;;;2.99;88.28;95831.97;5026260;28;20038;-63
2022/01/05 01:56:59;;;;;;;1.70;0.40;;;;;;;3.02;88.54;95840.56;5023791;28;20052;-63
2022/01/05 01:59:26;;;;;;;1.35;0.50;;;;;;;2.98;88.72;95834.88;5031595;28;20029;-62
2022/01/05 02:01:54;;;;;;;0.77;0.40;;;;;;;3.01;88.66;95837.06;5029602;28;20064;-63
2022/01/05 02:04:21;;;;;;;1.10;0.40;;;;;;;2.98;88.70;95838.38;5014390;28;20052;-63
2022/01/05 02:06:48;;;;;;;0.60;0.30;;;;;;;3.02;88.51;95833.34;5018700;28;20042;-63
2022/01/05 02:09:15;;;;;;;0.52;0.30;;;;;;;2.94;88.60;95849.78;5024997;28;20489;-63
2022/01/05 02:11:42;;;;;;;1.13;0.50;;;;;;;3.02;88.32;95864.63;5024201;28;20046;-63
2022/01/05 02:14:09;;;;;;;0.65;0.40;;;;;;;3.02;88.42;95861.97;5025636;28;20048;-63
2022/01/05 02:16:40;;;;;;;0.35;0.35;;;;;;;3.11;88.09;95855.97;5025071;28;20063;-62
2022/01/05 02:19:07;;;;;;;0.30;0.30;;;;;;;3.17;87.74;95851.50;5025894;28;20489;-63
2022/01/05 02:21:36;;;;;;;0.20;0.20;;;;;;;3.27;87.21;95855.41;5029453;28;20045;-63
2022/01/05 02:24:05;;;;;;;0.60;0.40;;;;;;;3.28;87.48;95843.66;5024680;28;20409;-63
2022/01/05 02:26:31;;;;;;;0.43;0.30;;;;;;;3.35;87.08;95844.28;5025405;28;20686;-63
2022/01/05 02:28:58;;;;;;;0.80;0.70;;;;;;;3.46;86.48;95848.75;5031642;28;20084;-63
2022/01/05 02:31:26;;;;;;;0.93;0.43;;;;;;;3.51;86.53;95830.09;5035439;28;20042;-63
2022/01/05 02:33:54;;;;;;;0.20;0.20;;;;;;;3.30;87.55;95833.50;5029025;28;20049;-63
2022/01/05 02:36:21;;;;;;;0.77;0.70;;;;;;;3.25;87.91;95842.28;5029398;28;20041;-62
2022/01/05 02:38:49;;;;;;;0.40;0.30;;;;;;;3.18;88.49;95833.59;5033241;28;20037;-63
2022/01/05 02:41:16;;;;;;;1.77;0.30;;;;;;;3.16;88.44;95838.41;5029635;28;20504;-63
2022/01/05 02:43:45;;;;;;;0.88;0.30;;;;;;;3.19;88.21;95848.59;5029053;28;20053;-63
2022/01/05 02:46:16;;;;;;;0.57;0.40;;;;;;;3.20;88.31;95848.34;5012815;28;20064;-63
2022/01/05 02:48:45;;;;;;;0.65;0.40;;;;;;;3.14;88.14;95849.34;5029874;28;20128;-62
2022/01/05 02:51:12;;;;;;;1.85;0.47;;;;;;;3.17;88.20;95858.72;5029513;28;20654;-63
2022/01/05 02:53:40;;;;;;;0.70;0.40;;;;;;;3.21;88.35;95854.53;5029752;28;20604;-63
2022/01/05 02:56:07;;;;;;;1.55;0.50;;;;;;;3.27;87.88;95858.88;5028805;28;20045;-63
2022/01/05 02:58:33;;;;;;;0.38;0.20;;;;;;;3.32;87.83;95856.28;5028756;28;20053;-63
2022/01/05 03:01:01;;;;;;;0.20;0.20;;;;;;;3.23;88.21;95857.75;5028730;28;20045;-62
2022/01/05 03:03:28;;;;;;;0.73;0.43;;;;;;;3.20;88.03;95855.56;5029105;28;20111;-63
2022/01/05 03:05:55;;;;;;;0.25;0.25;;;;;;;3.28;88.17;95860.50;5033029;28;20041;-63
2022/01/05 03:08:21;;;;;;;0.50;0.30;;;;;;;3.31;88.38;95851.22;5013069;28;20096;-63
2022/01/05 03:10:48;;;;;;;0.20;0.20;;;;;;;3.32;88.16;95856.28;5028714;28;20042;-62
2022/01/05 03:13:15;;;;;;;0.60;0.32;;;;;;;3.28;88.25;95863.19;5028923;28;20042;-62
2022/01/05 03:15:41;;;;;;;0.70;0.52;;;;;;;3.33;88.03;95865.97;5028093;28;20053;-62
2022/01/05 03:18:08;;;;;;;0.47;0.20;;;;;;;3.44;87.34;95879.50;5027828;28;20512;-63
2022/01/05 03:20:35;;;;;;;0.45;0.30;;;;;;;3.43;87.74;95875.19;5028179;28;20515;-63
2022/01/05 03:23:03;;;;;;;1.15;0.40;;;;;;;3.38;87.99;95874.06;5028582;28;20140;-63
2022/01/05 03:25:30;;;;;;;2.42;0.55;;;;;;;3.26;88.70;95873.31;5028678;28;20082;-63
2022/01/05 03:27:58;;;;;;;1.58;0.80;;;;;;;3.17;89.25;95869.44;5028056;28;20046;-63
2022/01/05 03:30:28;;;;;;;1.20;0.40;;;;;;;3.16;89.35;95871.28;5027699;28;20042;-62
2022/01/05 03:35:28;;;;;;;0.40;0.17;;;;;;;3.21;89.05;95871.38;5028297;28;20052;-63
2022/01/05 03:37:55;;;;;;;0.22;0.20;;;;;;;3.31;88.53;95872.59;5028505;28;20042;-63
2022/01/05 03:40:22;;;;;;;0.40;0.20;;;;;;;3.34;88.18;95877.47;5027821;28;20038;-63
2022/01/05 03:42:49;;;;;;;1.23;0.32;;;;;;;3.37;88.31;95885.00;5028502;28;20539;-63
2022/01/05 03:45:16;;;;;;;0.20;0.20;;;;;;;3.41;88.08;95880.78;5028201;28;20448;-63
2022/01/05 03:47:43;;;;;;;0.20;0.20;;;;;;;3.39;88.13;95877.53;5027019;28;20521;-63
2022/01/05 03:50:10;;;;;;;0.38;0.20;;;;;;;3.49;87.81;95896.44;5028799;28;20045;-63
2022/01/05 03:52:37;;;;;;;0.20;0.20;;;;;;;3.63;87.41;95896.13;5028178;28;20037;-64
2022/01/05 03:55:05;;;;;;;0.30;0.20;;;;;;;3.68;87.00;95893.50;5028195;28;20841;-63
2022/01/05 03:57:32;;;;;;;0.73;0.28;;;;;;;3.67;86.72;95904.47;5027792;28;20065;-63
2022/01/05 04:00:00;;;;;;;0.20;0.20;;;;;;;3.69;86.85;95900.47;5028326;28;20037;-63
2022/01/05 04:02:27;;;;;;;0.70;0.47;;;;;;;3.66;87.37;95900.16;5028670;28;20060;-63
2022/01/05 04:04:53;;;;;;;0.82;0.40;;;;;;;3.50;87.90;95907.94;5029950;28;20041;-63
2022/01/05 04:07:20;;;;;;;0.68;0.40;;;;;;;3.62;88.17;95923.94;5029497;28;20050;-63
2022/01/05 04:09:47;;;;;;;0.43;0.40;;;;;;;3.64;87.68;95927.19;5027873;28;20040;-63
2022/01/05 04:12:14;;;;;;;2.42;0.28;;;;;;;3.69;87.63;95932.59;5027752;28;20049;-62
2022/01/05 04:14:42;;;;;;;0.50;0.40;;;;;;;3.61;87.61;95933.84;5027664;28;21084;-63
2022/01/05 04:17:09;;;;;;;0.30;0.30;;;;;;;3.53;88.35;95952.16;5027470;28;20055;-63
2022/01/05 04:19:35;;;;;;;0.65;0.43;;;;;;;3.53;89.36;95952.97;5028083;28;20385;-63
2022/01/05 04:22:03;;;;;;;0.38;0.30;;;;;;;3.62;88.49;95964.09;5027765;28;20052;-63
2022/01/05 04:24:30;;;;;;;0.63;0.50;;;;;;;3.67;87.78;95976.72;5028223;28;20042;-63
2022/01/05 04:26:57;;;;;;;0.85;0.50;;;;;;;3.62;87.21;95985.50;5027531;28;20033;-63
2022/01/05 04:29:23;;;;;;;0.52;0.22;;;;;;;3.62;88.11;95978.28;5027217;28;20041;-63
2022/01/05 04:31:50;;;;;;;0.63;0.35;;;;;;;3.51;86.75;95976.50;5035736;28;20045;-63
2022/01/05 04:34:18;;;;;;;0.75;0.43;;;;;;;3.48;86.72;95985.00;5027676;28;20053;-63
2022/01/05 04:37:06;;;;;;;1.00;0.60;;;;;;;3.50;86.28;95978.34;5027751;28;20111;-63
2022/01/05 04:39:34;;;;;;;0.88;0.50;;;;;;;3.54;86.79;95992.03;5027590;28;20568;-63
2022/01/05 04:42:01;;;;;;;0.60;0.50;;;;;;;3.54;86.64;96000.06;5021970;28;20427;-62
2022/01/05 04:44:27;;;;;;;2.15;0.60;;;;;;;3.48;86.87;96004.56;5039209;28;20045;-63
2022/01/05 04:46:54;;;;;;;0.32;0.32;;;;;;;3.56;86.28;96013.22;5027039;28;20053;-63
2022/01/05 04:49:21;;;;;;;1.63;0.80;;;;;;;3.47;86.01;96007.47;5027243;28;20068;-62
2022/01/05 04:51:47;;;;;;;2.15;1.10;;;;;;;3.49;85.89;96016.88;5029049;28;20037;-63
2022/01/05 04:54:14;;;;;;;1.05;0.75;;;;;;;3.48;86.15;96023.28;5026945;28;20049;-63
2022/01/05 04:56:41;;;;;;;1.42;1.00;;;;;;;3.46;85.54;96021.91;5010430;28;20041;-63
2022/01/05 04:59:07;;;;;;;1.52;0.93;;;;;;;3.45;85.52;96021.09;5026808;28;20042;-63
2022/01/05 05:01:34;;;;;;;1.85;1.02;;;;;;;3.45;85.53;96009.56;5027649;28;20057;-63
2022/01/05 05:04:02;;;;;;;1.60;0.82;;;;;;;3.40;85.66;96028.19;5026816;28;20498;-63
2022/01/05 05:06:29;;;;;;;1.15;0.63;;;;;;;3.09;82.57;96081.91;5031196;28;20052;-63
2022/01/05 05:08:55;;;;;;;0.93;0.60;;;;;;;2.03;82.49;96111.06;5026467;28;20046;-63
2022/01/05 05:11:22;;;;;;;1.50;0.80;;;;;;;1.49;84.13;96103.78;5026424;28;20045;-63
2022/01/05 05:13:49;;;;;;;1.67;0.80;;;;;;;0.74;86.76;96115.25;5027183;28;20412;-62
2022/01/05 05:16:15;;;;;;;0.50;0.40;;;;;;;0.41;87.64;96113.75;5026737;28;20049;-63
2022/01/05 05:18:42;;;;;;;1.60;0.60;;;;;;;0.36;87.79;96145.50;5026243;28;20049;-63
2022/01/05 05:21:09;;;;;;;1.67;0.63;;;;;;;0.08;89.54;96136.91;5026901;28;20056;-63
2022/01/05 05:23:35;;;;;;;1.08;0.70;;;;;;;-0.08;90.42;96140.91;5026620;28;20057;-63
2022/01/05 05:26:02;;;;;;;2.42;0.60;;;;;;;-0.10;90.69;96140.31;5026626;28;20044;-62
2022/01/05 05:28:29;;;;;;;1.08;0.50;;;;;;;0.03;91.45;96151.91;5026533;28;20133;-63
2022/01/05 05:30:55;;;;;;;2.42;1.00;;;;;;;-0.07;90.30;96150.50;5026539;28;20041;-63
2022/01/05 05:33:22;;;;;;;2.35;0.68;;;;;;;-0.04;90.84;96159.94;5026227;28;20509;-63
2022/01/05 05:35:49;;;;;;;1.98;0.60;;;;;;;-0.01;90.80;96165.66;5026263;28;20037;-63
2022/01/05 05:38:16;;;;;;;2.72;0.60;;;;;;;0.11;91.36;96179.06;5026950;28;20051;-64
2022/01/05 05:40:43;;;;;;;1.58;0.70;;;;;;;0.15;91.03;96181.31;5025986;28;20049;-63
2022/01/05 05:43:10;;;;;;;2.25;1.13;;;;;;;0.20;91.08;96186.81;5025550;28;20431;-63
2022/01/05 05:45:37;;;;;;;2.10;0.93;;;;;;;0.22;90.68;96187.41;5025246;28;20045;-63
2022/01/05 05:48:04;;;;;;;2.17;0.93;;;;;;;0.23;91.45;96192.50;5025833;28;20099;-63
2022/01/05 05:50:32;;;;;;;1.65;0.90;;;;;;;0.26;90.44;96191.28;5026593;28;20033;-63
2022/01/05 05:52:58;;;;;;;1.52;0.82;;;;;;;0.29;89.89;96196.16;5026035;28;20171;-63
2022/01/05 05:55:25;;;;;;;1.60;1.00;;;;;;;0.44;90.86;96203.84;5026032;28;20045;-62
2022/01/05 05:57:51;;;;;;;1.63;0.90;;;;;;;0.46;90.38;96206.28;5026209;28;20512;-63
2022/01/05 06:00:18;;;;;;;1.95;0.90;;;;;;;0.59;90.72;96200.06;5026033;28;20057;-63
2022/01/05 06:02:45;;;;;;;2.10;0.90;;;;;;;0.59;89.66;96216.03;5026447;28;20049;-62
2022/01/05 06:05:12;;;;;;;2.38;0.77;;;;;;;0.63;89.08;96215.38;5025572;28;20156;-63
2022/01/05 06:07:38;;;;;;;1.00;0.60;;;;;;;0.50;89.38;96229.63;5026056;28;20041;-63
2022/01/05 06:10:06;;;;;;;2.83;0.93;;;;;;;0.58;89.94;96243.69;5025831;28;20041;-64
2022/01/05 06:12:32;;;;;;;1.00;0.50;;;;;;;0.63;89.68;96244.69;5024689;28;20037;-64
2022/01/05 06:14:59;;;;;;;1.48;0.82;;;;;;;0.87;92.25;96255.59;5026127;28;20201;-64
2022/01/05 06:17:26;;;;;;;1.35;0.93;;;;;;;0.80;89.32;96270.00;5025467;28;20046;-65
2022/01/05 06:19:53;;;;;;;1.70;0.77;;;;;;;0.77;89.92;96268.56;5025207;28;20056;-65
2022/01/05 06:22:19;;;;;;;1.05;0.80;;;;;;;0.65;88.23;96276.44;5019589;28;20045;-65
2022/01/05 06:24:48;;;;;;;1.52;0.70;;;;;;;0.52;89.42;96278.16;5025659;28;20041;-64
2022/01/05 06:27:15;;;;;;;2.13;0.93;;;;;;;0.43;90.07;96278.63;5009337;28;20050;-65
2022/01/05 06:29:42;;;;;;;1.65;0.80;;;;;;;0.20;91.16;96285.31;5026022;28;20048;-65
2022/01/05 06:32:09;;;;;;;4.22;0.88;;;;;;;0.20;91.59;96286.13;5031788;28;20107;-65
2022/01/05 06:34:35;;;;;;;3.05;0.82;;;;;;;0.16;91.62;96289.44;5026134;28;20061;-65
2022/01/05 06:37:03;;;;;;;2.17;0.80;;;;;;;0.19;90.75;96295.13;5025230;28;20489;-65
2022/01/05 06:39:30;;;;;;;3.50;1.00;;;;;;;0.22;90.64;96293.91;5025575;28;20497;-63
2022/01/05 06:41:56;;;;;;;1.45;0.90;;;;;;;0.25;90.41;96291.63;5024668;28;20497;-63
2022/01/05 06:44:23;;;;;;;2.90;1.00;;;;;;;0.29;91.06;96297.34;5025731;28;20037;-64
2022/01/05 06:46:50;;;;;;;2.08;1.00;;;;;;;0.30;90.57;96300.84;5025645;28;20041;-64
2022/01/05 06:49:17;;;;;;;3.55;1.00;;;;;;;0.36;90.04;96311.44;5025209;28;20640;-64
2022/01/05 06:51:44;;;;;;;2.42;1.15;;;;;;;0.47;89.79;96314.44;5025871;28;20037;-65
2022/01/05 06:54:11;;;;;;;4.85;2.17;;;;;;;0.37;90.16;96312.28;5025130;28;20077;-64
2022/01/05 06:56:37;;;;;;;3.63;1.70;;;;;;;0.24;90.32;96331.78;5025615;28;20041;-65
2022/01/05 06:59:04;;;;;;;2.47;1.27;;;;;;;0.23;89.60;96332.81;5025465;28;20056;-65
2022/01/05 07:01:30;;;;;;;2.17;0.73;;;;;;;0.27;88.62;96336.69;5025608;28;20040;-65
2022/01/05 07:03:59;;;;;;;4.93;2.10;;;;;;;0.20;89.76;96339.38;5025797;28;20041;-65
2022/01/05 07:06:26;;;;;;;7.05;3.78;;;;;;;0.24;87.81;96348.59;5024640;28;20041;-66
2022/01/05 07:08:52;;;;;;;3.13;1.27;;;;;;;0.18;87.41;96359.25;5024957;28;20052;-65
2022/01/05 07:11:19;;;;;;;3.80;1.88;;;;;;;0.20;86.44;96370.50;5025443;28;20037;-65
2022/01/05 07:13:45;;;;;;;6.00;2.55;;;;;;;0.19;88.09;96374.19;5026993;28;20471;-64
2022/01/05 07:16:12;;;;;;;4.40;1.38;;;;;;;0.16;87.06;96366.63;5027993;28;20420;-65
2022/01/05 07:18:39;;;;;;;7.85;4.65;;;;;;;0.15;88.29;96367.66;5028512;28;20233;-66
2022/01/05 07:21:05;;;;;;;4.53;2.28;;;;;;;0.09;86.12;96375.47;5029217;28;20057;-63
2022/01/05 07:23:32;;;;;;;8.98;1.95;;;;;;;0.02;86.72;96387.97;5026700;28;20624;-65
2022/01/05 07:25:58;;;;;;;2.80;1.30;;;;;;;0.05;85.81;96408.84;5032314;28;20041;-58
2022/01/05 07:28:25;;;;;;;2.72;1.35;;;;;;;0.06;86.68;96412.31;5029145;28;20045;-59
2022/01/05 07:30:52;;;;;;;2.75;1.48;;;;;;;0.34;86.38;96403.22;5027772;28;20412;-59
2022/01/05 07:33:18;;;;;;;4.03;1.48;;;;;;;0.40;84.29;96402.38;5026064;28;20051;-57
2022/01/05 07:35:45;;;;;;;4.95;2.00;;;;;;;0.61;83.94;96416.44;5026485;28;20041;-57
2022/01/05 07:38:12;;;;;;;3.50;1.95;;;;;;;0.34;85.16;96412.03;5026688;28;20390;-58
2022/01/05 07:40:39;;;;;;;2.60;1.42;;;;;;;0.32;84.90;96415.91;5026425;28;20045;-64
2022/01/05 07:43:06;;;;;;;3.75;1.35;;;;;;;0.11;84.11;96431.16;5026657;28;20049;-64
2022/01/05 07:45:36;;;;;;;5.90;1.70;;;;;;;0.01;86.66;96436.91;5026679;28;20076;-65
2022/01/05 07:48:04;;;;;;;5.78;1.48;;;;;;;-0.01;86.18;96428.28;5026196;28;20493;-64
2022/01/05 07:50:32;;;;;;;5.80;2.22;;;;;;;-0.02;84.96;96437.31;5026989;28;20116;-65
2022/01/05 07:53:04;;;;;;;4.35;2.13;;;;;;;-0.06;86.52;96441.41;5025851;28;20338;-64
2022/01/05 07:55:32;;;;;;;;;;;;;;;-0.07;86.28;96445.91;5026480;28;20103;-64
2022/01/05 07:58:03;;;;;;;3.00;1.55;;;;;;;0.00;85.47;96445.94;5026164;28;20030;-64
2022/01/05 08:00:35;;;;;;;4.60;2.20;;;;;;;0.00;85.58;96453.91;5026189;28;20643;-65
2022/01/05 08:03:02;;;;;;;6.25;2.20;;;;;;;-0.11;86.09;96465.16;5025002;28;21286;-65
2022/01/05 08:05:29;;;;;;;3.80;1.30;;;;;;;-0.16;86.06;96465.78;5029709;28;20512;-65
2022/01/05 08:07:56;;;;;;;5.35;1.98;;;;;;;-0.14;84.79;96467.19;5026736;28;20125;-65
2022/01/05 08:10:23;;;;;;;5.82;2.50;;;;;;;-0.16;86.59;96469.25;5028787;28;20041;-63
2022/01/05 08:12:50;;;;;;;4.03;2.33;;;;;;;-0.20;85.60;96488.50;5024377;28;20056;-65
2022/01/05 08:15:17;;;;;;;4.72;2.20;;;;;;;-0.13;83.97;96476.03;5026525;28;20040;-64
2022/01/05 08:17:43;;;;;;;4.25;1.65;;;;;;;-0.14;83.23;96488.50;5025850;28;20041;-65
2022/01/05 08:20:12;;;;;;;8.02;1.90;;;;;;;-0.13;84.09;96499.97;5025886;28;20077;-63
2022/01/05 08:22:41;;;;;;;3.45;1.90;;;;;;;-0.19;84.00;96500.81;5026400;28;20100;-61
2022/01/05 08:25:11;;;;;;;2.17;1.23;;;;;;;-0.21;84.41;96513.47;5027765;28;20045;-63
2022/01/05 08:27:45;;;;;;;5.43;2.58;;;;;;;-0.29;84.47;96517.97;5027473;28;20041;-63
2022/01/05 08:30:14;;;;;;;7.13;2.55;;;;;;;-0.34;83.31;96527.59;5026309;28;20114;-62
2022/01/05 08:32:42;;;;;;;3.08;1.73;;;;;;;-0.25;83.30;96514.91;5026032;28;20061;-63
2022/01/05 08:35:10;;;;;;;5.10;2.42;;;;;;;-0.28;83.72;96526.78;5026688;28;20072;-63
2022/01/05 08:37:41;;;;;;;5.35;2.05;;;;;;;-0.28;82.57;96514.31;5024808;28;20080;-63
2022/01/05 08:40:15;;;;;;;4.45;2.00;;;;;;;-0.34;84.29;96516.97;5017919;28;20049;-64
2022/01/05 08:42:42;;;;;;;7.82;1.90;;;;;;;-0.34;83.29;96512.44;5022863;28;20045;-63
2022/01/05 08:45:10;;;;;;;4.72;1.80;;;;;;;-0.31;84.79;96527.16;5031818;28;20103;-63
2022/01/05 08:47:37;;;;;;;4.28;1.88;;;;;;;-0.19;82.53;96535.38;5024835;28;20060;-63
2022/01/05 08:50:05;;;;;;;5.82;1.70;;;;;;;-0.18;82.41;96540.47;5024887;28;20049;-64
2022/01/05 08:52:33;;;;;;;8.10;2.10;;;;;;;-0.12;83.35;96546.84;5025247;28;20045;-63
2022/01/05 08:55:00;;;;;;;6.63;1.75;;;;;;;-0.09;82.02;96551.75;5023628;28;20060;-62
2022/01/05 08:57:28;;;;;;;3.97;1.80;;;;;;;-0.20;81.56;96552.34;5025679;28;20046;-60
2022/01/05 08:59:55;;;;;;;4.25;2.10;;;;;;;-0.20;83.23;96557.69;5024818;28;20050;-62
2022/01/05 09:02:21;;;;;;;6.20;1.98;;;;;;;-0.20;85.09;96555.00;5024198;28;20041;-61
2022/01/05 09:04:51;;;;;;;8.65;3.10;;;;;;;-0.30;83.57;96563.38;5028793;28;20052;-64
2022/01/05 09:07:19;;;;;;;8.02;2.13;;;;;;;-0.11;84.18;96567.09;5023477;28;20125;-62
2022/01/05 09:09:46;;;;;;;5.60;1.88;;;;;;;-0.02;83.66;96565.91;5024505;28;20099;-62
2022/01/05 09:12:14;;;;;;;5.90;2.05;;;;;;;0.13;81.68;96567.53;5025162;28;20065;-63
2022/01/05 09:14:40;;;;;;;2.35;1.15;;;;;;;0.21;79.01;96579.81;5024458;28;20044;-63
2022/01/05 09:17:08;;;;;;;7.00;2.50;;;;;;;-0.01;79.92;96586.16;5034168;28;20123;-64
2022/01/05 09:19:35;;;;;;;5.03;1.90;;;;;;;-0.01;79.74;96586.16;5025609;28;20029;-64
2022/01/05 09:22:04;;;;;;;4.82;2.47;;;;;;;0.08;80.21;96591.28;5019749;28;20065;-63
2022/01/05 09:24:52;;;;;;;8.48;2.65;;;;;;;-0.03;80.21;96595.38;5025288;28;20100;-61
2022/01/05 09:27:19;;;;;;;4.77;1.70;;;;;;;-0.03;79.41;96603.34;5023277;28;20049;-64
2022/01/05 09:29:46;;;;;;;5.35;1.30;;;;;;;-0.03;79.42;96620.13;5024966;28;20041;-63
2022/01/05 09:32:13;;;;;;;4.05;1.60;;;;;;;-0.14;79.32;96623.41;5024784;28;20056;-61
2022/01/05 09:34:41;;;;;;;9.82;2.25;;;;;;;-0.15;80.32;96627.06;5024195;28;20037;-61
2022/01/05 09:37:17;;;;;;;4.15;1.65;;;;;;;-0.18;79.44;96638.94;5023256;28;20103;-62
2022/01/05 09:42:30;;;;;;;3.95;1.60;;;;;;;-0.17;78.52;96639.75;5024193;28;20052;-62
2022/01/05 09:44:59;;;;;;;6.57;1.92;;;;;;;-0.31;79.66;96637.06;5023989;28;20467;-63
2022/01/05 09:47:42;;;;;;;4.05;1.15;;;;;;;-0.29;78.58;96643.00;5037080;28;20049;-64
2022/01/05 09:50:12;;;;;;;7.53;2.15;;;;;;;-0.31;79.21;96650.38;5024113;28;20041;-64
2022/01/05 09:52:42;;;;;;;4.65;1.80;;;;;;;-0.44;77.06;96653.00;5022559;28;20045;-62
2022/01/05 09:55:11;;;;;;;7.53;2.05;;;;;;;-0.31;78.45;96650.38;5017454;28;20512;-64
2022/01/05 09:57:41;;;;;;;8.13;1.98;;;;;;;-0.30;77.80;96667.16;5016140;28;20547;-64
2022/01/05 10:00:11;;;;;;;3.50;1.70;;;;;;;-0.14;77.46;96661.47;5024599;28;20047;-65
2022/01/05 10:02:39;;;;;;;5.93;1.75;;;;;;;-0.14;76.13;96664.13;5024192;28;20041;-67
2022/01/05 10:05:10;;;;;;;8.52;2.08;;;;;;;-0.09;75.21;96657.38;5023497;28;20167;-64
2022/01/05 10:07:38;;;;;;;5.43;1.48;;;;;;;-0.08;76.79;96664.38;5018162;28;20757;-65
2022/01/05 10:10:06;;;;;;;3.90;1.27;;;;;;;-0.03;74.79;96670.69;5021350;28;20107;-63
2022/01/05 10:12:33;;;;;;;2.03;1.10;;;;;;;0.08;74.89;96674.59;5015948;28;20037;-64
2022/01/05 10:15:00;;;;;;;5.10;1.73;;;;;;;0.08;73.87;96677.28;5021718;28;20128;-63
2022/01/05 10:17:29;;;;;;;6.00;1.10;;;;;;;0.32;74.29;96676.91;5027637;28;20806;-62
2022/01/05 10:20:05;;;;;;;3.38;1.00;;;;;;;0.47;70.75;96666.88;5029804;28;20044;-64
2022/01/05 10:22:33;;;;;;;5.00;1.45;;;;;;;0.52;70.63;96669.75;5027224;28;20052;-65
2022/01/05 10:25:22;;;;;;;5.90;1.55;;;;;;;0.66;73.24;96674.25;5023547;28;20133;-65
2022/01/05 10:27:59;;;;;;;6.50;1.15;;;;;;;0.56;69.90;96672.84;5015220;28;20037;-60
2022/01/05 10:30:41;;;;;;;4.05;1.40;;;;;;;0.30;70.11;96686.94;5016718;28;20045;-63
2022/01/05 10:33:08;;;;;;;4.90;1.13;;;;;;;0.28;70.80;96687.16;5023848;28;20114;-63
2022/01/05 10:35:35;;;;;;;9.02;1.73;;;;;;;0.27;71.00;96674.84;5023233;28;20041;-62
2022/01/05 10:38:04;;;;;;;5.70;1.60;;;;;;;0.64;71.09;96682.47;5023608;28;20523;-67
2022/01/05 10:40:37;;;;;;;1.95;1.30;;;;;;;0.60;70.37;96691.88;5017028;28;20045;-67
2022/01/05 10:43:12;;;;;;;5.70;1.52;;;;;;;0.60;70.62;96690.06;5011894;28;20030;-60
2022/01/05 10:45:45;;;;;;;4.18;1.30;;;;;;;0.72;70.34;96700.06;5019863;28;20037;-65
2022/01/05 10:48:15;;;;;;;5.30;1.17;;;;;;;0.60;70.53;96703.38;5024490;28;20500;-66
2022/01/05 10:50:44;;;;;;;6.18;1.50;;;;;;;0.49;68.70;96699.47;5032166;28;20041;-65
2022/01/05 10:53:18;;;;;;;6.20;2.60;;;;;;;0.48;72.55;96697.00;5022608;28;20045;-62
2022/01/05 10:55:46;;;;;;;4.13;1.17;;;;;;;0.56;69.49;96726.13;5027759;28;20046;-62
2022/01/05 10:58:17;;;;;;;8.90;1.75;;;;;;;0.49;71.65;96712.78;5027102;28;20167;-65
2022/01/05 11:00:45;;;;;;;;;;;;;;;0.52;71.13;96714.22;5013309;28;20038;-64
2022/01/05 11:03:21;;;;;;;4.65;1.45;;;;;;;0.55;72.01;96719.13;5024417;28;19925;-63
2022/01/05 11:06:10;;;;;;;3.88;1.38;;;;;;;0.59;71.86;96703.56;5027978;28;20640;-64
2022/01/05 11:08:49;;;;;;;7.10;1.60;;;;;;;0.63;70.84;96718.13;5022833;28;20041;-64
2022/01/05 11:11:41;;;;;;;6.85;1.73;;;;;;;0.48;71.26;96718.31;5023318;28;20037;-64
2022/01/05 11:14:29;;;;;;;6.80;2.00;;;;;;;0.50;70.93;96716.25;5027399;28;20773;-65
2022/01/05 11:17:01;;;;;;;5.90;1.98;;;;;;;0.51;71.62;96718.72;5020550;28;20046;-65
2022/01/05 11:19:33;;;;;;;5.47;1.40;;;;;;;0.84;70.28;96716.25;5026359;28;20115;-64
2022/01/05 11:22:16;;;;;;;4.35;1.48;;;;;;;0.98;71.35;96714.41;5026207;28;20061;-65
2022/01/05 11:24:51;;;;;;;5.13;1.55;;;;;;;1.11;69.65;96717.06;5040356;28;20046;-64
2022/01/05 11:27:24;;;;;;;6.03;1.38;;;;;;;1.14;69.92;96721.19;5026394;28;20045;-62
2022/01/05 11:29:51;;;;;;;5.70;1.65;;;;;;;1.06;69.66;96721.41;5013423;28;20800;-63
2022/01/05 11:32:23;;;;;;;7.75;1.33;;;;;;;0.90;69.84;96720.78;5027248;28;20528;-64
2022/01/05 11:34:51;;;;;;;7.63;2.10;;;;;;;0.64;69.79;96717.94;5021978;28;20045;-61
2022/01/05 11:37:19;;;;;;;11.30;4.32;;;;;;;0.64;68.84;96720.59;5026216;28;20689;-62
2022/01/05 11:39:55;;;;;;;8.60;2.92;;;;;;;0.49;70.48;96715.47;5015670;28;20042;-61
2022/01/05 11:42:32;;;;;;;5.85;1.55;;;;;;;0.47;70.54;96720.16;5028650;28;20038;-61
2022/01/05 11:45:00;;;;;;;7.45;1.95;;;;;;;0.55;68.71;96736.97;5023782;28;20134;-61
2022/01/05 11:47:32;;;;;;;3.10;1.25;;;;;;;0.85;67.67;96742.72;5026151;28;20057;-61
2022/01/05 11:50:14;;;;;;;3.35;1.00;;;;;;;1.02;66.81;96748.47;5018659;28;20046;-64
2022/01/05 11:53:08;;;;;;;3.83;1.35;;;;;;;1.02;69.33;96743.13;5016135;28;20041;-64